createdAt,value
2018-12-09T00:00:52.055Z,8.92
2018-12-09T00:01:52.648Z,8.85
2018-12-09T00:02:54.098Z,8.95
2018-12-09T00:03:53.824Z,9.00
2018-12-09T00:04:54.421Z,8.96
2018-12-09T00:05:55.008Z,8.98
2018-12-09T00:06:55.604Z,9.00
2018-12-09T00:07:56.208Z,8.98
2018-12-09T00:08:56.796Z,8.95
2018-12-09T00:09:57.392Z,9.00
2018-12-09T00:10:57.980Z,8.93
2018-12-09T00:11:58.576Z,8.92
2018-12-09T00:12:59.177Z,8.93
2018-12-09T00:13:59.773Z,8.93
2018-12-09T00:15:00.372Z,8.92
2018-12-09T00:16:00.958Z,8.85
2018-12-09T00:17:01.544Z,8.81
2018-12-09T00:18:02.139Z,8.82
2018-12-09T00:19:02.731Z,8.74
2018-12-09T00:20:03.319Z,8.81
2018-12-09T00:21:03.917Z,8.84
2018-12-09T00:22:04.503Z,8.77
2018-12-09T00:23:05.092Z,8.85
2018-12-09T00:24:05.686Z,8.88
2018-12-09T00:25:06.274Z,8.78
2018-12-09T00:26:06.869Z,8.91
2018-12-09T00:27:07.462Z,8.88
2018-12-09T00:28:08.060Z,8.91
2018-12-09T00:29:08.654Z,8.89
2018-12-09T00:30:09.252Z,8.92
2018-12-09T00:31:09.838Z,8.91
2018-12-09T00:32:10.432Z,8.96
2018-12-09T00:33:11.024Z,8.93
2018-12-09T00:34:11.615Z,8.86
2018-12-09T00:35:12.201Z,9.00
2018-12-09T00:36:12.804Z,8.92
2018-12-09T00:37:13.398Z,8.93
2018-12-09T00:38:13.995Z,8.95
2018-12-09T00:39:14.586Z,8.95
2018-12-09T00:40:15.183Z,8.96
2018-12-09T00:41:15.771Z,9.03
2018-12-09T00:42:16.360Z,9.08
2018-12-09T00:43:16.951Z,9.03
2018-12-09T00:44:17.547Z,8.96
2018-12-09T00:45:18.141Z,8.93
2018-12-09T00:46:18.741Z,8.78
2018-12-09T00:47:19.324Z,9.00
2018-12-09T00:48:19.913Z,8.89
2018-12-09T00:49:20.508Z,9.01
2018-12-09T00:50:21.106Z,9.11
2018-12-09T00:51:21.702Z,8.98
2018-12-09T00:52:22.400Z,9.03
2018-12-09T00:53:22.883Z,9.06
2018-12-09T00:54:23.481Z,9.06
2018-12-09T00:55:24.074Z,9.01
2018-12-09T00:56:24.706Z,9.01
2018-12-09T00:57:25.255Z,9.00
2018-12-09T00:58:25.854Z,9.04
2018-12-09T00:59:26.441Z,9.08
2018-12-09T01:00:27.030Z,9.11
2018-12-09T01:01:27.642Z,9.12
2018-12-09T01:02:28.244Z,9.08
2018-12-09T01:03:28.826Z,9.20
2018-12-09T01:04:29.425Z,9.17
2018-12-09T01:05:30.020Z,9.26
2018-12-09T01:06:30.609Z,9.20
2018-12-09T01:07:31.202Z,9.23
2018-12-09T01:08:31.792Z,9.26
2018-12-09T01:09:32.387Z,9.25
2018-12-09T01:10:32.981Z,9.25
2018-12-09T01:11:33.570Z,9.20
2018-12-09T01:12:34.167Z,9.22
2018-12-09T01:13:34.764Z,9.28
2018-12-09T01:14:35.359Z,9.29
2018-12-09T01:15:35.956Z,9.20
2018-12-09T01:16:36.553Z,9.26
2018-12-09T01:17:37.148Z,9.30
2018-12-09T01:18:37.737Z,9.30
2018-12-09T01:19:38.331Z,9.29
2018-12-09T01:20:38.929Z,9.28
2018-12-09T01:21:39.528Z,9.32
2018-12-09T01:22:40.120Z,9.32
2018-12-09T01:23:40.716Z,9.29
2018-12-09T01:24:41.312Z,9.32
2018-12-09T01:25:41.909Z,9.30
2018-12-09T01:26:42.497Z,9.33
2018-12-09T01:27:43.091Z,9.26
2018-12-09T01:28:43.680Z,9.32
2018-12-09T01:29:44.282Z,9.29
2018-12-09T01:30:44.900Z,9.25
2018-12-09T01:31:45.473Z,9.32
2018-12-09T01:32:46.068Z,9.28
2018-12-09T01:33:46.657Z,9.28
2018-12-09T01:34:47.256Z,9.26
2018-12-09T01:35:47.847Z,9.23
2018-12-09T01:36:48.433Z,9.28
2018-12-09T01:37:49.033Z,9.19
2018-12-09T01:38:49.638Z,9.23
2018-12-09T01:39:50.215Z,9.20
2018-12-09T01:40:50.815Z,9.29
2018-12-09T01:41:51.418Z,9.19
2018-12-09T01:42:51.996Z,9.20
2018-12-09T01:43:52.618Z,9.23
2018-12-09T01:44:53.215Z,9.12
2018-12-09T01:45:53.786Z,9.11
2018-12-09T01:46:54.385Z,9.11
2018-12-09T01:47:54.978Z,9.06
2018-12-09T01:48:55.573Z,9.06
2018-12-09T01:49:56.169Z,9.03
2018-12-09T01:50:56.763Z,8.95
2018-12-09T01:51:57.355Z,9.04
2018-12-09T01:52:57.951Z,8.98
2018-12-09T01:53:58.539Z,8.98
2018-12-09T01:54:59.136Z,9.00
2018-12-09T01:55:59.729Z,8.98
2018-12-09T01:57:00.321Z,8.96
2018-12-09T01:58:00.915Z,8.96
2018-12-09T01:59:01.516Z,8.95
2018-12-09T02:00:02.119Z,8.96
2018-12-09T02:01:02.707Z,8.92
2018-12-09T02:02:03.302Z,8.93
2018-12-09T02:03:03.905Z,8.95
2018-12-09T02:04:04.499Z,8.91
2018-12-09T02:05:05.092Z,8.85
2018-12-09T02:06:05.683Z,8.88
2018-12-09T02:07:06.280Z,8.88
2018-12-09T02:08:06.869Z,8.88
2018-12-09T02:09:07.463Z,8.96
2018-12-09T02:10:08.057Z,8.95
2018-12-09T02:11:08.648Z,9.00
2018-12-09T02:12:09.244Z,8.91
2018-12-09T02:13:09.844Z,8.95
2018-12-09T02:14:10.426Z,8.92
2018-12-09T02:15:11.018Z,9.00
2018-12-09T02:16:11.607Z,8.95
2018-12-09T02:17:12.203Z,9.00
2018-12-09T02:18:12.790Z,8.95
2018-12-09T02:19:13.388Z,8.98
2018-12-09T02:20:13.982Z,8.93
2018-12-09T02:21:14.567Z,8.95
2018-12-09T02:22:15.154Z,9.01
2018-12-09T02:23:15.743Z,8.95
2018-12-09T02:24:16.340Z,8.92
2018-12-09T02:25:16.933Z,8.95
2018-12-09T02:26:17.530Z,9.00
2018-12-09T02:27:18.122Z,8.98
2018-12-09T02:28:18.723Z,9.04
2018-12-09T02:29:19.317Z,9.04
2018-12-09T02:30:19.915Z,9.10
2018-12-09T02:31:20.509Z,9.08
2018-12-09T02:32:21.103Z,9.06
2018-12-09T02:33:21.701Z,9.14
2018-12-09T02:34:22.299Z,9.14
2018-12-09T02:35:22.891Z,9.12
2018-12-09T02:36:23.480Z,9.12
2018-12-09T02:37:24.084Z,9.04
2018-12-09T02:38:24.662Z,9.10
2018-12-09T02:39:25.263Z,9.11
2018-12-09T02:40:25.855Z,8.96
2018-12-09T02:41:26.449Z,8.96
2018-12-09T02:42:27.039Z,8.96
2018-12-09T02:43:27.639Z,8.93
2018-12-09T02:44:28.279Z,8.85
2018-12-09T02:45:28.813Z,8.77
2018-12-09T02:46:29.405Z,8.64
2018-12-09T02:47:30.001Z,8.58
2018-12-09T02:48:30.671Z,8.48
2018-12-09T02:49:31.253Z,8.43
2018-12-09T02:50:31.854Z,8.40
2018-12-09T02:51:32.443Z,8.45
2018-12-09T02:52:33.148Z,8.35
2018-12-09T02:53:33.635Z,8.27
2018-12-09T02:54:34.229Z,8.28
2018-12-09T02:55:34.826Z,8.34
2018-12-09T02:56:35.421Z,8.33
2018-12-09T02:57:36.005Z,8.34
2018-12-09T02:58:36.602Z,8.22
2018-12-09T02:59:37.192Z,8.27
2018-12-09T03:00:37.788Z,8.30
2018-12-09T03:01:38.385Z,8.23
2018-12-09T03:02:38.972Z,8.15
2018-12-09T03:03:39.566Z,8.15
2018-12-09T03:04:40.167Z,8.17
2018-12-09T03:05:40.759Z,8.20
2018-12-09T03:06:41.346Z,8.22
2018-12-09T03:07:41.939Z,8.19
2018-12-09T03:08:42.526Z,8.23
2018-12-09T03:09:43.122Z,8.28
2018-12-09T03:10:43.717Z,8.25
2018-12-09T03:11:44.311Z,8.33
2018-12-09T03:12:44.909Z,8.31
2018-12-09T03:13:45.496Z,8.28
2018-12-09T03:14:46.090Z,8.41
2018-12-09T03:15:46.682Z,8.28
2018-12-09T03:16:47.275Z,8.35
2018-12-09T03:17:47.868Z,8.48
2018-12-09T03:18:48.467Z,8.48
2018-12-09T03:19:49.052Z,8.48
2018-12-09T03:20:49.648Z,8.41
2018-12-09T03:21:50.240Z,8.41
2018-12-09T03:22:50.829Z,8.43
2018-12-09T03:23:51.418Z,8.35
2018-12-09T03:24:52.013Z,8.37
2018-12-09T03:25:52.601Z,8.45
2018-12-09T03:26:55.047Z,8.35
2018-12-09T03:27:53.782Z,8.35
2018-12-09T03:28:54.367Z,8.31
2018-12-09T03:29:54.955Z,8.41
2018-12-09T03:30:55.552Z,8.34
2018-12-09T03:31:56.453Z,8.46
2018-12-09T03:32:57.043Z,8.33
2018-12-09T03:33:57.636Z,8.35
2018-12-09T03:34:58.233Z,8.37
2018-12-09T03:35:58.831Z,8.31
2018-12-09T03:36:59.417Z,8.31
2018-12-09T03:38:00.013Z,8.31
2018-12-09T03:39:00.603Z,8.40
2018-12-09T03:40:01.190Z,8.40
2018-12-09T03:41:01.786Z,8.31
2018-12-09T03:42:02.571Z,8.40
2018-12-09T03:43:03.160Z,8.46
2018-12-09T03:44:03.756Z,8.46
2018-12-09T03:45:04.349Z,8.52
2018-12-09T03:46:04.951Z,8.45
2018-12-09T03:47:05.544Z,8.52
2018-12-09T03:48:06.141Z,8.55
2018-12-09T03:49:06.736Z,8.66
2018-12-09T03:50:07.327Z,8.70
2018-12-09T03:51:07.913Z,8.63
2018-12-09T03:52:08.498Z,8.20
2018-12-09T03:53:09.092Z,7.86
2018-12-09T03:54:09.687Z,7.72
2018-12-09T03:55:10.283Z,7.40
2018-12-09T03:56:10.888Z,7.32
2018-12-09T03:57:11.480Z,7.28
2018-12-09T03:58:12.075Z,7.25
2018-12-09T03:59:12.661Z,7.29
2018-12-09T04:00:13.257Z,7.33
2018-12-09T04:01:13.845Z,7.33
2018-12-09T04:02:14.442Z,7.39
2018-12-09T04:03:15.244Z,7.46
2018-12-09T04:04:15.815Z,7.66
2018-12-09T04:05:16.406Z,7.81
2018-12-09T04:06:17.002Z,7.94
2018-12-09T04:07:17.587Z,8.01
2018-12-09T04:08:18.182Z,8.12
2018-12-09T04:09:18.800Z,8.16
2018-12-09T04:10:19.355Z,8.10
2018-12-09T04:11:19.949Z,8.23
2018-12-09T04:12:20.542Z,8.27
2018-12-09T04:13:21.129Z,8.40
2018-12-09T04:14:21.727Z,8.37
2018-12-09T04:15:22.313Z,8.43
2018-12-09T04:16:22.906Z,8.38
2018-12-09T04:17:23.502Z,8.41
2018-12-09T04:18:24.100Z,8.41
2018-12-09T04:19:24.696Z,8.35
2018-12-09T04:20:25.279Z,8.43
2018-12-09T04:21:25.867Z,8.49
2018-12-09T04:22:26.462Z,8.52
2018-12-09T04:23:27.053Z,8.58
2018-12-09T04:24:27.651Z,8.60
2018-12-09T04:25:28.245Z,8.63
2018-12-09T04:26:28.834Z,8.64
2018-12-09T04:27:29.423Z,8.60
2018-12-09T04:28:30.016Z,8.63
2018-12-09T04:29:30.612Z,8.66
2018-12-09T04:30:31.200Z,8.66
2018-12-09T04:31:31.815Z,8.67
2018-12-09T04:32:32.383Z,8.70
2018-12-09T04:33:32.977Z,8.67
2018-12-09T04:34:33.576Z,8.66
2018-12-09T04:35:34.159Z,8.68
2018-12-09T04:36:34.755Z,8.77
2018-12-09T04:37:35.349Z,8.66
2018-12-09T04:38:35.951Z,8.74
2018-12-09T04:39:36.545Z,8.76
2018-12-09T04:40:37.131Z,8.78
2018-12-09T04:41:37.719Z,8.74
2018-12-09T04:42:38.458Z,8.73
2018-12-09T04:43:38.913Z,8.76
2018-12-09T04:44:39.495Z,8.74
2018-12-09T04:45:40.090Z,8.77
2018-12-09T04:46:40.677Z,8.85
2018-12-09T04:47:41.275Z,8.86
2018-12-09T04:48:41.871Z,8.81
2018-12-09T04:49:42.468Z,8.82
2018-12-09T04:50:43.063Z,8.81
2018-12-09T04:51:43.664Z,8.82
2018-12-09T04:52:44.248Z,8.77
2018-12-09T04:53:44.844Z,8.82
2018-12-09T04:54:45.441Z,8.84
2018-12-09T04:55:46.048Z,8.76
2018-12-09T04:56:46.631Z,8.82
2018-12-09T04:57:47.229Z,8.78
2018-12-09T04:58:47.812Z,8.78
2018-12-09T04:59:48.400Z,8.68
2018-12-09T05:00:48.996Z,8.67
2018-12-09T05:01:49.593Z,8.55
2018-12-09T05:02:50.187Z,8.59
2018-12-09T05:03:50.775Z,8.52
2018-12-09T05:04:51.361Z,8.38
2018-12-09T05:05:51.952Z,8.38
2018-12-09T05:06:52.545Z,8.33
2018-12-09T05:07:53.141Z,8.27
2018-12-09T05:08:53.735Z,8.22
2018-12-09T05:09:54.330Z,8.13
2018-12-09T05:10:54.922Z,8.09
2018-12-09T05:11:55.513Z,8.01
2018-12-09T05:12:57.360Z,8.07
2018-12-09T05:13:56.700Z,7.97
2018-12-09T05:14:57.287Z,8.02
2018-12-09T05:15:57.877Z,7.98
2018-12-09T05:16:58.477Z,8.04
2018-12-09T05:17:59.065Z,7.95
2018-12-09T05:18:59.654Z,8.06
2018-12-09T05:20:00.249Z,7.99
2018-12-09T05:21:00.843Z,7.95
2018-12-09T05:22:01.442Z,8.01
2018-12-09T05:23:02.035Z,7.97
2018-12-09T05:24:02.631Z,8.02
2018-12-09T05:25:03.227Z,7.99
2018-12-09T05:26:03.819Z,8.04
2018-12-09T05:27:04.414Z,8.07
2018-12-09T05:28:05.006Z,7.99
2018-12-09T05:29:05.594Z,8.02
2018-12-09T05:30:06.182Z,8.02
2018-12-09T05:31:06.777Z,8.07
2018-12-09T05:32:07.408Z,8.04
2018-12-09T05:33:07.969Z,8.09
2018-12-09T05:34:08.559Z,8.09
2018-12-09T05:35:09.148Z,8.17
2018-12-09T05:36:09.735Z,8.16
2018-12-09T05:37:10.322Z,8.20
2018-12-09T05:38:10.917Z,8.25
2018-12-09T05:39:11.514Z,8.25
2018-12-09T05:40:12.148Z,8.30
2018-12-09T05:41:12.704Z,8.20
2018-12-09T05:42:13.291Z,8.19
2018-12-09T05:43:13.886Z,8.27
2018-12-09T05:44:14.486Z,8.31
2018-12-09T05:45:15.078Z,8.27
2018-12-09T05:46:15.671Z,8.28
2018-12-09T05:47:16.264Z,8.40
2018-12-09T05:48:16.858Z,8.41
2018-12-09T05:49:17.446Z,8.43
2018-12-09T05:50:18.041Z,8.43
2018-12-09T05:51:18.637Z,8.45
2018-12-09T05:52:19.328Z,8.50
2018-12-09T05:53:19.814Z,8.48
2018-12-09T05:54:20.409Z,8.56
2018-12-09T05:55:21.008Z,8.50
2018-12-09T05:56:21.605Z,8.55
2018-12-09T05:57:22.204Z,8.53
2018-12-09T05:58:22.799Z,8.59
2018-12-09T05:59:23.398Z,8.63
2018-12-09T06:00:23.988Z,8.70
2018-12-09T06:01:24.575Z,8.66
2018-12-09T06:02:25.171Z,8.76
2018-12-09T06:03:25.769Z,8.66
2018-12-09T06:04:26.364Z,8.66
2018-12-09T06:05:26.957Z,8.66
2018-12-09T06:06:27.553Z,8.70
2018-12-09T06:07:28.426Z,8.66
2018-12-09T06:08:29.033Z,8.78
2018-12-09T06:09:29.628Z,8.78
2018-12-09T06:10:30.248Z,8.66
2018-12-09T06:11:30.836Z,8.76
2018-12-09T06:12:31.413Z,8.76
2018-12-09T06:13:32.012Z,8.76
2018-12-09T06:14:32.606Z,8.71
2018-12-09T06:15:33.199Z,8.63
2018-12-09T06:16:33.785Z,8.66
2018-12-09T06:17:34.373Z,8.64
2018-12-09T06:18:34.969Z,8.66
2018-12-09T06:19:35.558Z,8.73
2018-12-09T06:20:36.152Z,8.77
2018-12-09T06:21:36.748Z,8.66
2018-12-09T06:22:37.344Z,8.73
2018-12-09T06:23:37.932Z,8.63
2018-12-09T06:24:38.531Z,8.76
2018-12-09T06:25:39.114Z,8.71
2018-12-09T06:26:39.713Z,8.73
2018-12-09T06:27:40.550Z,8.73
2018-12-09T06:28:41.142Z,8.81
2018-12-09T06:29:41.740Z,8.82
2018-12-09T06:30:42.333Z,8.78
2018-12-09T06:31:42.928Z,8.73
2018-12-09T06:32:43.516Z,8.73
2018-12-09T06:33:44.109Z,8.73
2018-12-09T06:34:44.706Z,8.74
2018-12-09T06:35:45.302Z,8.78
2018-12-09T06:36:45.900Z,8.77
2018-12-09T06:37:46.685Z,8.81
2018-12-09T06:38:47.279Z,8.78
2018-12-09T06:39:47.877Z,8.85
2018-12-09T06:40:48.474Z,8.77
2018-12-09T06:41:49.067Z,8.86
2018-12-09T06:42:49.668Z,8.81
2018-12-09T06:43:50.263Z,8.82
2018-12-09T06:44:50.849Z,8.77
2018-12-09T06:45:51.448Z,8.76
2018-12-09T06:46:52.044Z,8.78
2018-12-09T06:47:52.636Z,8.78
2018-12-09T06:48:53.230Z,8.76
2018-12-09T06:49:53.824Z,8.78
2018-12-09T06:50:54.422Z,8.82
2018-12-09T06:51:55.015Z,8.78
2018-12-09T06:52:55.601Z,8.77
2018-12-09T06:53:56.196Z,8.84
2018-12-09T06:54:56.798Z,8.84
2018-12-09T06:55:57.387Z,8.81
2018-12-09T06:56:57.988Z,8.85
2018-12-09T06:57:58.749Z,8.81
2018-12-09T06:58:59.345Z,8.84
2018-12-09T06:59:59.949Z,8.74
2018-12-09T07:01:00.536Z,8.85
2018-12-09T07:02:01.123Z,8.82
2018-12-09T07:03:01.710Z,8.76
2018-12-09T07:04:02.308Z,8.85
2018-12-09T07:05:02.903Z,8.84
2018-12-09T07:06:03.499Z,8.78
2018-12-09T07:07:04.097Z,8.77
2018-12-09T07:08:04.705Z,8.81
2018-12-09T07:09:05.292Z,8.84
2018-12-09T07:10:05.888Z,8.84
2018-12-09T07:11:06.477Z,8.85
2018-12-09T07:12:07.071Z,8.81
2018-12-09T07:13:07.662Z,8.85
2018-12-09T07:14:08.326Z,8.85
2018-12-09T07:15:08.836Z,8.78
2018-12-09T07:16:09.459Z,8.84
2018-12-09T07:17:10.048Z,8.88
2018-12-09T07:18:10.650Z,8.81
2018-12-09T07:19:11.245Z,8.84
2018-12-09T07:20:11.858Z,8.86
2018-12-09T07:21:12.445Z,8.78
2018-12-09T07:22:13.039Z,8.84
2018-12-09T07:23:13.634Z,8.85
2018-12-09T07:24:14.229Z,8.82
2018-12-09T07:25:14.828Z,8.88
2018-12-09T07:26:15.424Z,8.77
2018-12-09T07:27:16.205Z,8.78
2018-12-09T07:28:16.802Z,8.81
2018-12-09T07:29:17.410Z,8.86
2018-12-09T07:30:17.994Z,8.86
2018-12-09T07:31:18.592Z,8.81
2018-12-09T07:32:19.212Z,8.77
2018-12-09T07:33:19.782Z,8.78
2018-12-09T07:34:20.382Z,8.95
2018-12-09T07:35:20.984Z,8.81
2018-12-09T07:36:21.584Z,8.84
2018-12-09T07:37:22.179Z,8.82
2018-12-09T07:38:22.781Z,8.89
2018-12-09T07:39:23.392Z,8.93
2018-12-09T07:40:23.979Z,9.00
2018-12-09T07:41:24.571Z,8.98
2018-12-09T07:42:25.177Z,8.92
2018-12-09T07:43:25.773Z,8.93
2018-12-09T07:44:26.375Z,9.00
2018-12-09T07:45:26.969Z,9.00
2018-12-09T07:46:27.559Z,8.95
2018-12-09T07:47:28.154Z,8.91
2018-12-09T07:48:28.765Z,8.93
2018-12-09T07:49:29.343Z,8.98
2018-12-09T07:50:29.944Z,8.95
2018-12-09T07:51:30.542Z,8.93
2018-12-09T07:52:31.148Z,8.95
2018-12-09T07:53:31.740Z,8.93
2018-12-09T07:54:32.341Z,8.98
2018-12-09T07:55:32.946Z,8.96
2018-12-09T07:56:33.545Z,8.95
2018-12-09T07:57:34.149Z,8.98
2018-12-09T07:58:34.749Z,8.93
2018-12-09T07:59:35.349Z,8.96
2018-12-09T08:00:35.950Z,8.96
2018-12-09T08:01:36.549Z,8.92
2018-12-09T08:02:37.146Z,9.00
2018-12-09T08:03:37.749Z,8.93
2018-12-09T08:04:38.349Z,9.01
2018-12-09T08:05:38.951Z,9.08
2018-12-09T08:06:39.551Z,8.96
2018-12-09T08:07:40.151Z,8.93
2018-12-09T08:08:40.746Z,9.01
2018-12-09T08:09:41.345Z,9.01
2018-12-09T08:10:41.935Z,9.01
2018-12-09T08:11:42.539Z,9.10
2018-12-09T08:12:43.153Z,9.08
2018-12-09T08:13:43.741Z,8.98
2018-12-09T08:14:44.346Z,9.06
2018-12-09T08:15:44.947Z,8.96
2018-12-09T08:16:45.546Z,9.06
2018-12-09T08:17:46.140Z,9.03
2018-12-09T08:18:46.738Z,9.08
2018-12-09T08:19:47.334Z,9.01
2018-12-09T08:20:47.934Z,9.11
2018-12-09T08:21:48.532Z,9.06
2018-12-09T08:22:49.133Z,9.08
2018-12-09T08:23:49.724Z,9.03
2018-12-09T08:24:50.325Z,8.98
2018-12-09T08:25:50.926Z,9.01
2018-12-09T08:26:51.525Z,9.04
2018-12-09T08:27:52.123Z,9.00
2018-12-09T08:28:52.718Z,9.01
2018-12-09T08:29:53.321Z,8.91
2018-12-09T08:30:53.921Z,8.93
2018-12-09T08:31:54.522Z,9.01
2018-12-09T08:32:55.125Z,8.98
2018-12-09T08:33:55.727Z,8.93
2018-12-09T08:34:56.319Z,8.81
2018-12-09T08:35:56.911Z,8.82
2018-12-09T08:36:57.504Z,8.81
2018-12-09T08:37:58.101Z,8.73
2018-12-09T08:38:58.697Z,8.67
2018-12-09T08:39:59.288Z,8.58
2018-12-09T08:40:59.879Z,8.59
2018-12-09T08:42:00.479Z,8.56
2018-12-09T08:43:01.078Z,8.48
2018-12-09T08:44:01.682Z,8.55
2018-12-09T08:45:02.279Z,8.50
2018-12-09T08:46:02.878Z,8.43
2018-12-09T08:47:03.488Z,8.49
2018-12-09T08:48:04.081Z,8.41
2018-12-09T08:49:04.683Z,8.43
2018-12-09T08:50:05.284Z,8.48
2018-12-09T08:51:05.876Z,8.46
2018-12-09T08:52:06.465Z,8.48
2018-12-09T08:53:07.060Z,8.45
2018-12-09T08:54:07.664Z,8.49
2018-12-09T08:55:08.258Z,8.45
2018-12-09T08:56:08.861Z,8.50
2018-12-09T08:57:09.460Z,8.53
2018-12-09T08:58:10.058Z,8.49
2018-12-09T08:59:10.654Z,8.49
2018-12-09T09:00:11.257Z,8.46
2018-12-09T09:01:11.858Z,8.43
2018-12-09T09:02:12.462Z,8.45
2018-12-09T09:03:13.055Z,8.48
2018-12-09T09:04:13.657Z,8.49
2018-12-09T09:05:14.259Z,8.46
2018-12-09T09:06:14.860Z,8.50
2018-12-09T09:07:15.465Z,8.56
2018-12-09T09:08:16.066Z,8.55
2018-12-09T09:09:16.667Z,8.56
2018-12-09T09:10:17.263Z,8.48
2018-12-09T09:11:17.860Z,8.56
2018-12-09T09:12:18.461Z,8.53
2018-12-09T09:13:19.062Z,8.59
2018-12-09T09:14:19.665Z,8.56
2018-12-09T09:15:20.266Z,8.58
2018-12-09T09:16:20.865Z,8.67
2018-12-09T09:17:21.470Z,8.58
2018-12-09T09:18:22.072Z,8.52
2018-12-09T09:19:22.682Z,8.52
2018-12-09T09:20:23.270Z,8.48
2018-12-09T09:21:23.878Z,8.45
2018-12-09T09:22:24.479Z,8.49
2018-12-09T09:23:25.078Z,8.48
2018-12-09T09:24:25.679Z,8.49
2018-12-09T09:25:26.278Z,8.41
2018-12-09T09:26:26.876Z,8.38
2018-12-09T09:27:27.472Z,8.33
2018-12-09T09:28:28.068Z,8.35
2018-12-09T09:29:28.670Z,8.43
2018-12-09T09:30:29.260Z,8.41
2018-12-09T09:31:29.856Z,8.38
2018-12-09T09:32:30.453Z,8.34
2018-12-09T09:33:31.053Z,8.33
2018-12-09T09:34:31.643Z,8.41
2018-12-09T09:35:32.248Z,8.31
2018-12-09T09:36:32.844Z,8.45
2018-12-09T09:37:33.447Z,8.37
2018-12-09T09:38:34.038Z,8.37
2018-12-09T09:39:34.648Z,8.43
2018-12-09T09:40:35.233Z,8.40
2018-12-09T09:41:35.828Z,8.49
2018-12-09T09:42:36.426Z,8.41
2018-12-09T09:43:37.019Z,8.40
2018-12-09T09:44:37.620Z,8.40
2018-12-09T09:45:38.222Z,8.56
2018-12-09T09:46:38.831Z,8.55
2018-12-09T09:47:39.428Z,8.50
2018-12-09T09:48:40.028Z,8.53
2018-12-09T09:49:40.631Z,8.48
2018-12-09T09:50:41.232Z,8.45
2018-12-09T09:51:41.832Z,8.63
2018-12-09T09:52:42.438Z,8.56
2018-12-09T09:53:43.050Z,8.56
2018-12-09T09:54:43.637Z,8.58
2018-12-09T09:55:44.237Z,8.63
2018-12-09T09:56:44.835Z,8.53
2018-12-09T09:57:45.428Z,8.53
2018-12-09T09:58:46.029Z,8.48
2018-12-09T09:59:46.631Z,8.59
2018-12-09T10:00:47.223Z,8.48
2018-12-09T10:01:47.824Z,8.43
2018-12-09T10:02:48.427Z,8.40
2018-12-09T10:03:49.022Z,8.35
2018-12-09T10:04:49.615Z,8.25
2018-12-09T10:05:50.205Z,8.13
2018-12-09T10:06:50.802Z,8.10
2018-12-09T10:07:51.402Z,8.13
2018-12-09T10:08:51.991Z,8.02
2018-12-09T10:09:52.582Z,8.07
2018-12-09T10:10:53.204Z,7.98
2018-12-09T10:11:53.788Z,7.94
2018-12-09T10:12:54.382Z,7.95
2018-12-09T10:13:54.981Z,7.94
2018-12-09T10:14:55.580Z,7.99
2018-12-09T10:15:56.185Z,7.91
2018-12-09T10:16:56.787Z,7.81
2018-12-09T10:17:57.383Z,7.80
2018-12-09T10:18:57.985Z,7.79
2018-12-09T10:19:58.586Z,7.70
2018-12-09T10:20:59.188Z,7.66
2018-12-09T10:21:59.786Z,7.60
2018-12-09T10:23:00.379Z,7.55
2018-12-09T10:24:00.965Z,7.42
2018-12-09T10:25:01.553Z,7.40
2018-12-09T10:26:02.146Z,7.37
2018-12-09T10:27:02.736Z,7.39
2018-12-09T10:28:03.332Z,7.28
2018-12-09T10:29:03.932Z,7.29
2018-12-09T10:30:04.528Z,7.15
2018-12-09T10:31:05.128Z,7.18
2018-12-09T10:32:05.727Z,7.14
2018-12-09T10:33:06.326Z,7.18
2018-12-09T10:34:06.915Z,7.07
2018-12-09T10:35:07.507Z,7.06
2018-12-09T10:36:08.106Z,7.04
2018-12-09T10:37:08.709Z,7.04
2018-12-09T10:38:09.306Z,7.06
2018-12-09T10:39:09.904Z,7.02
2018-12-09T10:40:10.501Z,7.03
2018-12-09T10:41:11.096Z,7.18
2018-12-09T10:42:11.693Z,7.15
2018-12-09T10:43:12.297Z,7.15
2018-12-09T10:44:12.899Z,7.22
2018-12-09T10:45:13.492Z,7.28
2018-12-09T10:46:14.096Z,7.29
2018-12-09T10:47:14.693Z,7.24
2018-12-09T10:48:15.285Z,7.21
2018-12-09T10:49:15.885Z,7.22
2018-12-09T10:50:16.480Z,7.21
2018-12-09T10:51:17.069Z,7.21
2018-12-09T10:52:17.674Z,7.28
2018-12-09T10:53:18.262Z,7.28
2018-12-09T10:54:18.885Z,7.22
2018-12-09T10:55:19.460Z,7.14
2018-12-09T10:56:20.061Z,7.14
2018-12-09T10:57:20.663Z,7.12
2018-12-09T10:58:21.286Z,7.18
2018-12-09T10:59:21.854Z,7.09
2018-12-09T11:00:22.455Z,7.03
2018-12-09T11:01:23.045Z,7.07
2018-12-09T11:02:23.647Z,7.07
2018-12-09T11:03:24.247Z,7.03
2018-12-09T11:04:24.849Z,7.04
2018-12-09T11:05:25.460Z,7.06
2018-12-09T11:06:26.049Z,7.03
2018-12-09T11:07:26.696Z,7.03
2018-12-09T11:08:27.238Z,7.04
2018-12-09T11:09:27.839Z,7.00
2018-12-09T11:10:28.429Z,6.96
2018-12-09T11:11:29.020Z,7.02
2018-12-09T11:12:29.613Z,6.96
2018-12-09T11:13:30.206Z,7.00
2018-12-09T11:14:30.796Z,7.07
2018-12-09T11:15:31.400Z,6.97
2018-12-09T11:16:31.999Z,6.99
2018-12-09T11:17:32.590Z,6.94
2018-12-09T11:18:33.183Z,6.97
2018-12-09T11:19:33.781Z,7.03
2018-12-09T11:20:34.380Z,7.02
2018-12-09T11:21:34.983Z,7.04
2018-12-09T11:22:35.570Z,7.04
2018-12-09T11:23:36.165Z,6.97
2018-12-09T11:24:36.763Z,7.07
2018-12-09T11:25:37.363Z,7.00
2018-12-09T11:26:37.966Z,7.07
2018-12-09T11:27:38.568Z,7.15
2018-12-09T11:28:39.167Z,7.02
2018-12-09T11:29:39.769Z,7.15
2018-12-09T11:30:40.360Z,7.14
2018-12-09T11:31:40.958Z,7.15
2018-12-09T11:32:41.556Z,7.18
2018-12-09T11:33:42.158Z,7.14
2018-12-09T11:34:42.756Z,7.15
2018-12-09T11:35:43.355Z,7.27
2018-12-09T11:36:43.949Z,7.22
2018-12-09T11:37:44.540Z,7.28
2018-12-09T11:38:45.132Z,7.21
2018-12-09T11:39:45.735Z,7.29
2018-12-09T11:40:46.336Z,7.27
2018-12-09T11:41:46.942Z,7.29
2018-12-09T11:42:47.532Z,7.32
2018-12-09T11:43:48.121Z,7.32
2018-12-09T11:44:48.715Z,7.28
2018-12-09T11:45:49.314Z,7.25
2018-12-09T11:46:49.919Z,7.25
2018-12-09T11:47:50.511Z,7.21
2018-12-09T11:48:51.108Z,7.32
2018-12-09T11:49:51.713Z,7.28
2018-12-09T11:50:52.315Z,7.35
2018-12-09T11:51:52.917Z,7.29
2018-12-09T11:52:53.506Z,7.29
2018-12-09T11:53:54.111Z,7.32
2018-12-09T11:54:54.713Z,7.27
2018-12-09T11:55:55.312Z,7.33
2018-12-09T11:56:55.910Z,7.33
2018-12-09T11:57:56.512Z,7.35
2018-12-09T11:58:57.113Z,7.37
2018-12-09T11:59:57.715Z,7.60
2018-12-09T12:00:58.336Z,7.74
2018-12-09T12:01:58.918Z,7.80
2018-12-09T12:02:59.523Z,7.99
2018-12-09T12:04:00.124Z,8.04
2018-12-09T12:05:00.719Z,8.07
2018-12-09T12:06:01.312Z,8.22
2018-12-09T12:07:01.916Z,8.38
2018-12-09T12:08:02.516Z,8.38
2018-12-09T12:09:03.111Z,8.37
2018-12-09T12:10:03.717Z,8.40
2018-12-09T12:11:04.318Z,8.46
2018-12-09T12:12:04.921Z,8.52
2018-12-09T12:13:05.525Z,8.66
2018-12-09T12:14:06.128Z,8.60
2018-12-09T12:15:06.732Z,8.66
2018-12-09T12:16:07.336Z,8.68
2018-12-09T12:17:07.935Z,8.78
2018-12-09T12:18:08.534Z,8.66
2018-12-09T12:19:09.135Z,8.63
2018-12-09T12:20:09.733Z,8.55
2018-12-09T12:21:10.334Z,8.55
2018-12-09T12:22:10.928Z,8.55
2018-12-09T12:23:11.535Z,8.56
2018-12-09T12:24:12.142Z,8.56
2018-12-09T12:25:12.738Z,8.55
2018-12-09T12:26:13.334Z,8.63
2018-12-09T12:27:13.938Z,8.59
2018-12-09T12:28:14.538Z,8.56
2018-12-09T12:29:15.142Z,8.56
2018-12-09T12:30:15.748Z,8.56
2018-12-09T12:31:16.351Z,8.56
2018-12-09T12:32:16.942Z,8.60
2018-12-09T12:33:17.542Z,8.66
2018-12-09T12:34:18.139Z,8.60
2018-12-09T12:35:18.748Z,8.59
2018-12-09T12:36:19.346Z,8.64
2018-12-09T12:37:19.949Z,8.66
2018-12-09T12:38:20.554Z,8.71
2018-12-09T12:39:21.158Z,8.73
2018-12-09T12:40:21.763Z,8.74
2018-12-09T12:41:22.363Z,8.84
2018-12-09T12:42:22.968Z,8.88
2018-12-09T12:43:23.571Z,8.95
2018-12-09T12:44:24.166Z,9.04
2018-12-09T12:45:24.774Z,9.12
2018-12-09T12:46:25.366Z,9.23
2018-12-09T12:47:25.962Z,9.15
2018-12-09T12:48:26.582Z,9.14
2018-12-09T12:49:27.177Z,9.14
2018-12-09T12:50:27.814Z,9.22
2018-12-09T12:51:28.405Z,9.23
2018-12-09T12:52:29.008Z,9.12
2018-12-09T12:53:29.608Z,9.15
2018-12-09T12:54:30.200Z,9.06
2018-12-09T12:55:30.792Z,9.00
2018-12-09T12:56:31.386Z,8.82
2018-12-09T12:57:31.981Z,8.76
2018-12-09T12:58:32.608Z,8.70
2018-12-09T12:59:33.175Z,8.59
2018-12-09T13:00:33.788Z,8.56
2018-12-09T13:01:34.380Z,8.49
2018-12-09T13:02:34.984Z,8.41
2018-12-09T13:03:35.587Z,8.40
2018-12-09T13:04:36.182Z,8.33
2018-12-09T13:05:36.782Z,8.30
2018-12-09T13:06:37.383Z,8.16
2018-12-09T13:07:37.985Z,8.15
2018-12-09T13:08:38.583Z,8.17
2018-12-09T13:09:39.175Z,8.12
2018-12-09T13:10:39.789Z,8.06
2018-12-09T13:11:40.374Z,8.13
2018-12-09T13:12:40.964Z,8.04
2018-12-09T13:13:41.561Z,8.04
2018-12-09T13:14:42.155Z,7.98
2018-12-09T13:15:42.748Z,8.01
2018-12-09T13:16:43.346Z,8.01
2018-12-09T13:17:43.947Z,7.92
2018-12-09T13:18:44.546Z,7.99
2018-12-09T13:19:45.150Z,7.95
2018-12-09T13:20:45.754Z,7.97
2018-12-09T13:21:46.352Z,7.95
2018-12-09T13:22:46.935Z,7.91
2018-12-09T13:23:47.636Z,7.88
2018-12-09T13:24:48.154Z,7.88
2018-12-09T13:25:48.750Z,7.94
2018-12-09T13:26:49.342Z,7.92